sensor_id;sensor_type;location;lat;lon;timestamp;temperature;humidity
25512;DHT22;13414;44.534;18.700;2022-12-18T00:01:39;4.90;1.00
25512;DHT22;13414;44.534;18.700;2022-12-18T00:04:11;4.90;99.90
25512;DHT22;13414;44.534;18.700;2022-12-18T00:06:40;4.90;1.00
25512;DHT22;13414;44.534;18.700;2022-12-18T00:09:08;4.80;99.90
25512;DHT22;13414;44.534;18.700;2022-12-18T00:11:35;4.80;1.00
25512;DHT22;13414;44.534;18.700;2022-12-18T00:14:04;4.80;1.00
25512;DHT22;13414;44.534;18.700;2022-12-18T00:16:32;4.80;1.00
25512;DHT22;13414;44.534;18.700;2022-12-18T00:19:01;4.80;1.00
25512;DHT22;13414;44.534;18.700;2022-12-18T00:21:29;4.80;1.00
25512;DHT22;13414;44.534;18.700;2022-12-18T00:23:57;4.80;1.00
25512;DHT22;13414;44.534;18.700;2022-12-18T00:26:26;4.70;1.00
25512;DHT22;13414;44.534;18.700;2022-12-18T00:28:58;4.60;99.90
25512;DHT22;13414;44.534;18.700;2022-12-18T00:31:27;4.60;1.00
25512;DHT22;13414;44.534;18.700;2022-12-18T00:33:56;4.60;1.00
25512;DHT22;13414;44.534;18.700;2022-12-18T00:36:25;4.60;1.00
25512;DHT22;13414;44.534;18.700;2022-12-18T00:38:53;4.60;1.00
25512;DHT22;13414;44.534;18.700;2022-12-18T00:41:23;4.60;1.00
25512;DHT22;13414;44.534;18.700;2022-12-18T00:44:10;4.50;1.00
25512;DHT22;13414;44.534;18.700;2022-12-18T00:46:39;4.50;99.90
25512;DHT22;13414;44.534;18.700;2022-12-18T00:49:07;4.50;99.90
25512;DHT22;13414;44.534;18.700;2022-12-18T00:51:34;4.50;1.00
25512;DHT22;13414;44.534;18.700;2022-12-18T00:54:01;4.50;47.80
25512;DHT22;13414;44.534;18.700;2022-12-18T00:56:31;4.50;1.00
25512;DHT22;13414;44.534;18.700;2022-12-18T00:58:58;4.50;1.00
25512;DHT22;13414;44.534;18.700;2022-12-18T01:01:25;4.50;92.40
25512;DHT22;13414;44.534;18.700;2022-12-18T01:03:55;4.50;1.00
25512;DHT22;13414;44.534;18.700;2022-12-18T01:06:24;4.50;1.00
25512;DHT22;13414;44.534;18.700;2022-12-18T01:08:52;4.50;1.00
25512;DHT22;13414;44.534;18.700;2022-12-18T01:11:20;4.50;1.00
25512;DHT22;13414;44.534;18.700;2022-12-18T01:13:48;4.50;1.00
25512;DHT22;13414;44.534;18.700;2022-12-18T01:16:16;4.50;1.00
25512;DHT22;13414;44.534;18.700;2022-12-18T01:18:44;4.50;1.00
25512;DHT22;13414;44.534;18.700;2022-12-18T01:21:14;4.50;1.00
25512;DHT22;13414;44.534;18.700;2022-12-18T01:23:46;4.50;99.90
25512;DHT22;13414;44.534;18.700;2022-12-18T01:26:15;4.50;1.00
25512;DHT22;13414;44.534;18.700;2022-12-18T01:28:43;4.50;99.90
25512;DHT22;13414;44.534;18.700;2022-12-18T01:31:16;4.40;1.00
25512;DHT22;13414;44.534;18.700;2022-12-18T01:33:44;4.40;1.00
25512;DHT22;13414;44.534;18.700;2022-12-18T01:36:18;4.50;99.90
25512;DHT22;13414;44.534;18.700;2022-12-18T01:38:47;4.50;99.90
25512;DHT22;13414;44.534;18.700;2022-12-18T01:41:16;4.60;99.90
25512;DHT22;13414;44.534;18.700;2022-12-18T01:43:45;4.50;1.00
25512;DHT22;13414;44.534;18.700;2022-12-18T01:46:14;4.60;99.90
25512;DHT22;13414;44.534;18.700;2022-12-18T01:48:42;4.60;99.90
25512;DHT22;13414;44.534;18.700;2022-12-18T01:51:11;4.50;1.00
25512;DHT22;13414;44.534;18.700;2022-12-18T01:53:42;4.40;1.00
25512;DHT22;13414;44.534;18.700;2022-12-18T01:56:13;4.50;1.00
25512;DHT22;13414;44.534;18.700;2022-12-18T01:58:46;4.40;1.00
25512;DHT22;13414;44.534;18.700;2022-12-18T02:01:15;4.40;99.90
25512;DHT22;13414;44.534;18.700;2022-12-18T02:03:43;4.30;99.90
25512;DHT22;13414;44.534;18.700;2022-12-18T02:06:15;4.30;1.00
25512;DHT22;13414;44.534;18.700;2022-12-18T02:08:57;4.20;1.00
25512;DHT22;13414;44.534;18.700;2022-12-18T02:11:37;4.20;1.00
25512;DHT22;13414;44.534;18.700;2022-12-18T02:14:16;4.10;99.90
25512;DHT22;13414;44.534;18.700;2022-12-18T02:16:51;4.10;1.00
25512;DHT22;13414;44.534;18.700;2022-12-18T02:19:38;4.10;40.10
25512;DHT22;13414;44.534;18.700;2022-12-18T02:22:16;4.10;1.00
25512;DHT22;13414;44.534;18.700;2022-12-18T02:24:59;4.10;1.00
25512;DHT22;13414;44.534;18.700;2022-12-18T02:27:30;4.10;99.90
25512;DHT22;13414;44.534;18.700;2022-12-18T02:30:00;4.10;1.00
25512;DHT22;13414;44.534;18.700;2022-12-18T02:32:32;4.10;99.90
25512;DHT22;13414;44.534;18.700;2022-12-18T02:35:02;4.00;99.90
25512;DHT22;13414;44.534;18.700;2022-12-18T02:37:34;4.00;1.00
25512;DHT22;13414;44.534;18.700;2022-12-18T02:40:06;4.10;1.00
25512;DHT22;13414;44.534;18.700;2022-12-18T02:42:38;4.10;1.00
25512;DHT22;13414;44.534;18.700;2022-12-18T02:45:08;4.20;99.10
25512;DHT22;13414;44.534;18.700;2022-12-18T02:47:38;4.10;1.00
25512;DHT22;13414;44.534;18.700;2022-12-18T02:50:12;4.10;99.90
25512;DHT22;13414;44.534;18.700;2022-12-18T02:52:49;4.10;1.00
25512;DHT22;13414;44.534;18.700;2022-12-18T02:55:28;4.10;1.00
25512;DHT22;13414;44.534;18.700;2022-12-18T02:58:11;4.10;1.00
25512;DHT22;13414;44.534;18.700;2022-12-18T03:00:43;4.10;99.90
25512;DHT22;13414;44.534;18.700;2022-12-18T03:03:16;4.10;1.00
25512;DHT22;13414;44.534;18.700;2022-12-18T03:05:48;4.00;1.00
25512;DHT22;13414;44.534;18.700;2022-12-18T03:08:20;4.00;1.00
25512;DHT22;13414;44.534;18.700;2022-12-18T03:10:53;3.90;1.00
25512;DHT22;13414;44.534;18.700;2022-12-18T03:13:31;3.80;99.90
25512;DHT22;13414;44.534;18.700;2022-12-18T03:16:00;3.90;1.00
25512;DHT22;13414;44.534;18.700;2022-12-18T03:18:31;3.90;99.90
25512;DHT22;13414;44.534;18.700;2022-12-18T03:21:04;3.90;1.00
25512;DHT22;13414;44.534;18.700;2022-12-18T03:23:38;4.00;99.90
25512;DHT22;13414;44.534;18.700;2022-12-18T03:26:14;4.00;1.00
25512;DHT22;13414;44.534;18.700;2022-12-18T03:28:47;3.90;1.00
25512;DHT22;13414;44.534;18.700;2022-12-18T03:31:20;3.90;99.90
25512;DHT22;13414;44.534;18.700;2022-12-18T03:33:53;3.80;99.90
25512;DHT22;13414;44.534;18.700;2022-12-18T03:36:34;3.80;1.00
25512;DHT22;13414;44.534;18.700;2022-12-18T03:39:02;3.90;1.00
25512;DHT22;13414;44.534;18.700;2022-12-18T03:41:37;4.00;1.00
25512;DHT22;13414;44.534;18.700;2022-12-18T03:44:39;4.00;99.90
25512;DHT22;13414;44.534;18.700;2022-12-18T03:47:11;3.90;99.90
25512;DHT22;13414;44.534;18.700;2022-12-18T03:49:46;3.90;1.00
25512;DHT22;13414;44.534;18.700;2022-12-18T03:52:20;3.90;1.00
25512;DHT22;13414;44.534;18.700;2022-12-18T03:54:51;3.90;1.00
25512;DHT22;13414;44.534;18.700;2022-12-18T03:57:22;3.80;99.90
25512;DHT22;13414;44.534;18.700;2022-12-18T03:59:56;3.80;36.10
25512;DHT22;13414;44.534;18.700;2022-12-18T04:02:29;3.80;1.00
25512;DHT22;13414;44.534;18.700;2022-12-18T04:05:03;3.70;1.00
25512;DHT22;13414;44.534;18.700;2022-12-18T04:07:33;3.70;1.00
25512;DHT22;13414;44.534;18.700;2022-12-18T04:10:02;3.70;1.00
25512;DHT22;13414;44.534;18.700;2022-12-18T04:12:31;3.70;1.00
25512;DHT22;13414;44.534;18.700;2022-12-18T04:15:00;3.80;1.00
25512;DHT22;13414;44.534;18.700;2022-12-18T04:17:28;3.90;1.00
25512;DHT22;13414;44.534;18.700;2022-12-18T04:19:56;4.00;1.00
25512;DHT22;13414;44.534;18.700;2022-12-18T04:22:24;4.00;1.00
25512;DHT22;13414;44.534;18.700;2022-12-18T04:24:57;4.00;99.90
25512;DHT22;13414;44.534;18.700;2022-12-18T04:27:31;4.00;1.00
25512;DHT22;13414;44.534;18.700;2022-12-18T04:30:00;4.00;1.00
25512;DHT22;13414;44.534;18.700;2022-12-18T04:32:29;3.90;99.90
25512;DHT22;13414;44.534;18.700;2022-12-18T04:34:56;3.80;78.20
25512;DHT22;13414;44.534;18.700;2022-12-18T04:37:24;3.70;1.00
25512;DHT22;13414;44.534;18.700;2022-12-18T04:39:52;3.70;39.80
25512;DHT22;13414;44.534;18.700;2022-12-18T04:42:26;3.70;99.90
25512;DHT22;13414;44.534;18.700;2022-12-18T04:44:53;3.70;99.90
25512;DHT22;13414;44.534;18.700;2022-12-18T04:47:22;3.80;90.40
25512;DHT22;13414;44.534;18.700;2022-12-18T04:49:50;3.90;1.00
25512;DHT22;13414;44.534;18.700;2022-12-18T04:52:17;3.90;1.00
25512;DHT22;13414;44.534;18.700;2022-12-18T04:54:45;4.00;1.00
25512;DHT22;13414;44.534;18.700;2022-12-18T04:57:12;3.90;1.00
25512;DHT22;13414;44.534;18.700;2022-12-18T04:59:40;3.90;99.90
25512;DHT22;13414;44.534;18.700;2022-12-18T05:02:07;3.90;1.00
25512;DHT22;13414;44.534;18.700;2022-12-18T05:04:36;3.80;9.20
25512;DHT22;13414;44.534;18.700;2022-12-18T05:07:03;3.80;2.60
25512;DHT22;13414;44.534;18.700;2022-12-18T05:09:31;3.70;99.90
25512;DHT22;13414;44.534;18.700;2022-12-18T05:11:58;3.70;99.90
25512;DHT22;13414;44.534;18.700;2022-12-18T05:14:26;3.70;1.00
25512;DHT22;13414;44.534;18.700;2022-12-18T05:16:55;3.70;1.00
25512;DHT22;13414;44.534;18.700;2022-12-18T05:19:22;3.70;99.90
25512;DHT22;13414;44.534;18.700;2022-12-18T05:21:51;3.70;1.00
25512;DHT22;13414;44.534;18.700;2022-12-18T05:24:18;3.70;1.00
25512;DHT22;13414;44.534;18.700;2022-12-18T05:26:46;3.70;99.90
25512;DHT22;13414;44.534;18.700;2022-12-18T05:29:13;3.70;1.00
25512;DHT22;13414;44.534;18.700;2022-12-18T05:31:40;3.70;99.90
25512;DHT22;13414;44.534;18.700;2022-12-18T05:34:08;3.60;1.00
25512;DHT22;13414;44.534;18.700;2022-12-18T05:36:35;3.70;1.00
25512;DHT22;13414;44.534;18.700;2022-12-18T05:39:04;3.60;99.90
25512;DHT22;13414;44.534;18.700;2022-12-18T05:41:32;3.60;1.00
25512;DHT22;13414;44.534;18.700;2022-12-18T05:43:59;3.60;1.00
25512;DHT22;13414;44.534;18.700;2022-12-18T05:46:27;3.50;1.00
25512;DHT22;13414;44.534;18.700;2022-12-18T05:48:55;3.40;1.00
25512;DHT22;13414;44.534;18.700;2022-12-18T05:51:22;3.50;1.00
25512;DHT22;13414;44.534;18.700;2022-12-18T05:53:49;3.40;99.90
25512;DHT22;13414;44.534;18.700;2022-12-18T05:56:21;3.40;99.90
25512;DHT22;13414;44.534;18.700;2022-12-18T05:58:51;3.40;1.00
25512;DHT22;13414;44.534;18.700;2022-12-18T06:01:22;3.40;41.70
25512;DHT22;13414;44.534;18.700;2022-12-18T06:03:50;3.40;1.00
25512;DHT22;13414;44.534;18.700;2022-12-18T06:06:18;3.30;1.00
25512;DHT22;13414;44.534;18.700;2022-12-18T06:08:46;3.10;99.90
25512;DHT22;13414;44.534;18.700;2022-12-18T06:11:18;3.00;1.00
25512;DHT22;13414;44.534;18.700;2022-12-18T06:13:46;3.00;1.00
25512;DHT22;13414;44.534;18.700;2022-12-18T06:16:13;2.90;1.00
25512;DHT22;13414;44.534;18.700;2022-12-18T06:18:41;3.00;1.00
25512;DHT22;13414;44.534;18.700;2022-12-18T06:21:08;2.90;1.00
25512;DHT22;13414;44.534;18.700;2022-12-18T06:23:36;2.90;1.00
25512;DHT22;13414;44.534;18.700;2022-12-18T06:26:04;2.90;1.00
25512;DHT22;13414;44.534;18.700;2022-12-18T06:28:34;2.80;1.00
25512;DHT22;13414;44.534;18.700;2022-12-18T06:31:02;2.80;1.00
25512;DHT22;13414;44.534;18.700;2022-12-18T06:33:30;2.80;1.00
25512;DHT22;13414;44.534;18.700;2022-12-18T06:36:00;2.70;1.00
25512;DHT22;13414;44.534;18.700;2022-12-18T06:38:28;2.70;1.00
25512;DHT22;13414;44.534;18.700;2022-12-18T06:40:55;2.70;1.00
25512;DHT22;13414;44.534;18.700;2022-12-18T06:43:23;2.60;99.90
25512;DHT22;13414;44.534;18.700;2022-12-18T06:46:00;2.60;99.90
25512;DHT22;13414;44.534;18.700;2022-12-18T06:48:28;2.50;99.90
25512;DHT22;13414;44.534;18.700;2022-12-18T06:50:55;2.50;1.00
25512;DHT22;13414;44.534;18.700;2022-12-18T06:53:23;2.50;1.00
25512;DHT22;13414;44.534;18.700;2022-12-18T06:55:50;2.50;1.00
25512;DHT22;13414;44.534;18.700;2022-12-18T06:58:18;2.60;99.90
25512;DHT22;13414;44.534;18.700;2022-12-18T07:00:45;2.50;1.00
25512;DHT22;13414;44.534;18.700;2022-12-18T07:03:15;2.50;99.90
25512;DHT22;13414;44.534;18.700;2022-12-18T07:05:42;2.50;99.90
25512;DHT22;13414;44.534;18.700;2022-12-18T07:08:10;2.40;99.90
25512;DHT22;13414;44.534;18.700;2022-12-18T07:10:41;2.50;99.90
25512;DHT22;13414;44.534;18.700;2022-12-18T07:13:09;2.50;1.00
25512;DHT22;13414;44.534;18.700;2022-12-18T07:15:36;2.50;1.00
25512;DHT22;13414;44.534;18.700;2022-12-18T07:18:04;2.50;99.90
25512;DHT22;13414;44.534;18.700;2022-12-18T07:20:33;2.50;99.90
25512;DHT22;13414;44.534;18.700;2022-12-18T07:23:02;2.60;99.90
25512;DHT22;13414;44.534;18.700;2022-12-18T07:25:33;2.60;99.90
25512;DHT22;13414;44.534;18.700;2022-12-18T07:28:00;2.50;99.90
25512;DHT22;13414;44.534;18.700;2022-12-18T07:30:27;2.50;99.90
25512;DHT22;13414;44.534;18.700;2022-12-18T07:32:55;2.50;99.90
25512;DHT22;13414;44.534;18.700;2022-12-18T07:35:22;2.40;99.90
25512;DHT22;13414;44.534;18.700;2022-12-18T07:37:51;2.40;99.90
25512;DHT22;13414;44.534;18.700;2022-12-18T07:40:18;2.30;99.90
25512;DHT22;13414;44.534;18.700;2022-12-18T07:42:46;2.20;99.90
25512;DHT22;13414;44.534;18.700;2022-12-18T07:45:21;2.20;99.90
25512;DHT22;13414;44.534;18.700;2022-12-18T07:47:50;2.20;99.90
25512;DHT22;13414;44.534;18.700;2022-12-18T07:50:18;2.20;99.90
25512;DHT22;13414;44.534;18.700;2022-12-18T07:52:45;2.20;99.90
25512;DHT22;13414;44.534;18.700;2022-12-18T07:55:15;2.10;99.90
25512;DHT22;13414;44.534;18.700;2022-12-18T07:57:42;2.20;99.90
25512;DHT22;13414;44.534;18.700;2022-12-18T08:00:11;2.10;99.90
25512;DHT22;13414;44.534;18.700;2022-12-18T08:02:39;2.10;99.90
25512;DHT22;13414;44.534;18.700;2022-12-18T08:05:07;2.10;99.90
25512;DHT22;13414;44.534;18.700;2022-12-18T08:07:35;2.10;99.90
25512;DHT22;13414;44.534;18.700;2022-12-18T08:10:02;2.10;99.90
25512;DHT22;13414;44.534;18.700;2022-12-18T08:12:31;2.10;99.90
25512;DHT22;13414;44.534;18.700;2022-12-18T08:14:58;2.00;99.90
25512;DHT22;13414;44.534;18.700;2022-12-18T08:17:26;2.10;99.90
25512;DHT22;13414;44.534;18.700;2022-12-18T08:19:54;2.10;99.90
25512;DHT22;13414;44.534;18.700;2022-12-18T08:22:21;2.10;99.90
25512;DHT22;13414;44.534;18.700;2022-12-18T08:24:48;2.20;99.90
25512;DHT22;13414;44.534;18.700;2022-12-18T08:27:16;2.30;99.90
25512;DHT22;13414;44.534;18.700;2022-12-18T08:29:45;2.50;99.90
25512;DHT22;13414;44.534;18.700;2022-12-18T08:32:13;2.60;1.00
25512;DHT22;13414;44.534;18.700;2022-12-18T08:34:40;2.80;1.00
25512;DHT22;13414;44.534;18.700;2022-12-18T08:37:08;2.80;20.60
25512;DHT22;13414;44.534;18.700;2022-12-18T08:39:35;2.80;99.90
25512;DHT22;13414;44.534;18.700;2022-12-18T08:42:03;2.90;99.90
25512;DHT22;13414;44.534;18.700;2022-12-18T08:44:50;3.00;99.90
25512;DHT22;13414;44.534;18.700;2022-12-18T08:47:17;3.00;99.90
25512;DHT22;13414;44.534;18.700;2022-12-18T08:49:44;3.00;99.90
25512;DHT22;13414;44.534;18.700;2022-12-18T08:52:15;3.10;99.90
25512;DHT22;13414;44.534;18.700;2022-12-18T08:54:42;3.20;99.90
25512;DHT22;13414;44.534;18.700;2022-12-18T08:57:09;3.30;99.90
25512;DHT22;13414;44.534;18.700;2022-12-18T08:59:37;3.30;99.90
25512;DHT22;13414;44.534;18.700;2022-12-18T09:02:07;3.50;99.90
25512;DHT22;13414;44.534;18.700;2022-12-18T09:04:35;3.40;99.90
25512;DHT22;13414;44.534;18.700;2022-12-18T09:07:02;3.40;99.90
25512;DHT22;13414;44.534;18.700;2022-12-18T09:09:29;3.40;99.90
25512;DHT22;13414;44.534;18.700;2022-12-18T09:11:57;3.40;99.90
25512;DHT22;13414;44.534;18.700;2022-12-18T09:14:25;3.40;99.90
25512;DHT22;13414;44.534;18.700;2022-12-18T09:16:53;3.40;99.90
25512;DHT22;13414;44.534;18.700;2022-12-18T09:19:22;3.40;99.90
25512;DHT22;13414;44.534;18.700;2022-12-18T09:21:49;3.50;99.90
25512;DHT22;13414;44.534;18.700;2022-12-18T09:24:17;3.60;99.90
25512;DHT22;13414;44.534;18.700;2022-12-18T09:26:45;3.70;99.90
25512;DHT22;13414;44.534;18.700;2022-12-18T09:29:12;3.80;99.90
25512;DHT22;13414;44.534;18.700;2022-12-18T09:31:40;4.00;99.90
25512;DHT22;13414;44.534;18.700;2022-12-18T09:34:08;4.00;99.90
25512;DHT22;13414;44.534;18.700;2022-12-18T09:36:37;4.10;99.90
25512;DHT22;13414;44.534;18.700;2022-12-18T09:39:05;4.10;99.90
25512;DHT22;13414;44.534;18.700;2022-12-18T09:41:41;4.20;99.90
25512;DHT22;13414;44.534;18.700;2022-12-18T09:44:16;4.10;99.90
25512;DHT22;13414;44.534;18.700;2022-12-18T09:46:47;4.10;99.90
25512;DHT22;13414;44.534;18.700;2022-12-18T09:49:17;4.10;99.90
25512;DHT22;13414;44.534;18.700;2022-12-18T09:51:50;4.00;99.90
25512;DHT22;13414;44.534;18.700;2022-12-18T09:54:22;4.00;99.90
25512;DHT22;13414;44.534;18.700;2022-12-18T09:56:51;4.20;99.90
25512;DHT22;13414;44.534;18.700;2022-12-18T09:59:24;4.30;99.90
25512;DHT22;13414;44.534;18.700;2022-12-18T10:01:52;4.50;99.90
25512;DHT22;13414;44.534;18.700;2022-12-18T10:04:20;4.70;99.90
25512;DHT22;13414;44.534;18.700;2022-12-18T10:06:55;4.80;99.90
25512;DHT22;13414;44.534;18.700;2022-12-18T10:09:30;4.90;99.90
25512;DHT22;13414;44.534;18.700;2022-12-18T10:12:07;5.10;99.90
25512;DHT22;13414;44.534;18.700;2022-12-18T10:14:42;5.00;99.90
25512;DHT22;13414;44.534;18.700;2022-12-18T10:17:20;4.90;99.90
25512;DHT22;13414;44.534;18.700;2022-12-18T10:19:52;4.80;99.90
25512;DHT22;13414;44.534;18.700;2022-12-18T10:22:38;4.60;99.90
25512;DHT22;13414;44.534;18.700;2022-12-18T10:25:17;4.30;99.90
25512;DHT22;13414;44.534;18.700;2022-12-18T10:27:46;4.30;99.90
25512;DHT22;13414;44.534;18.700;2022-12-18T10:30:16;4.30;99.90
25512;DHT22;13414;44.534;18.700;2022-12-18T10:32:43;4.30;99.90
25512;DHT22;13414;44.534;18.700;2022-12-18T10:35:17;4.20;99.90
25512;DHT22;13414;44.534;18.700;2022-12-18T10:38:05;4.10;99.90
25512;DHT22;13414;44.534;18.700;2022-12-18T10:40:47;4.10;99.90
25512;DHT22;13414;44.534;18.700;2022-12-18T10:43:19;4.10;99.90
25512;DHT22;13414;44.534;18.700;2022-12-18T10:46:08;4.00;99.90
25512;DHT22;13414;44.534;18.700;2022-12-18T10:48:47;4.00;99.90
25512;DHT22;13414;44.534;18.700;2022-12-18T10:51:20;4.10;99.90
25512;DHT22;13414;44.534;18.700;2022-12-18T10:53:55;4.10;99.90
25512;DHT22;13414;44.534;18.700;2022-12-18T10:56:24;4.10;99.90
25512;DHT22;13414;44.534;18.700;2022-12-18T10:58:58;4.10;99.90
25512;DHT22;13414;44.534;18.700;2022-12-18T11:01:26;4.10;99.90
25512;DHT22;13414;44.534;18.700;2022-12-18T11:04:04;4.20;99.90
25512;DHT22;13414;44.534;18.700;2022-12-18T11:06:34;4.30;99.90
25512;DHT22;13414;44.534;18.700;2022-12-18T11:09:22;4.40;99.90
25512;DHT22;13414;44.534;18.700;2022-12-18T11:11:49;4.50;99.90
25512;DHT22;13414;44.534;18.700;2022-12-18T11:14:22;4.60;99.90
25512;DHT22;13414;44.534;18.700;2022-12-18T11:16:51;4.80;99.90
25512;DHT22;13414;44.534;18.700;2022-12-18T11:19:31;4.80;99.90
25512;DHT22;13414;44.534;18.700;2022-12-18T11:22:01;4.80;99.90
25512;DHT22;13414;44.534;18.700;2022-12-18T11:24:32;4.80;99.90
25512;DHT22;13414;44.534;18.700;2022-12-18T11:27:01;4.70;99.90
25512;DHT22;13414;44.534;18.700;2022-12-18T11:29:34;4.70;99.90
25512;DHT22;13414;44.534;18.700;2022-12-18T11:32:31;4.70;99.90
25512;DHT22;13414;44.534;18.700;2022-12-18T11:35:07;4.70;99.90
25512;DHT22;13414;44.534;18.700;2022-12-18T11:37:39;4.80;99.90
25512;DHT22;13414;44.534;18.700;2022-12-18T11:40:14;4.80;99.90
25512;DHT22;13414;44.534;18.700;2022-12-18T11:42:47;4.80;99.90
25512;DHT22;13414;44.534;18.700;2022-12-18T11:45:28;4.80;99.90
25512;DHT22;13414;44.534;18.700;2022-12-18T11:48:03;4.90;99.90
25512;DHT22;13414;44.534;18.700;2022-12-18T11:50:38;4.90;99.90
25512;DHT22;13414;44.534;18.700;2022-12-18T11:53:11;4.90;99.90
25512;DHT22;13414;44.534;18.700;2022-12-18T11:55:48;4.90;99.90
25512;DHT22;13414;44.534;18.700;2022-12-18T11:58:28;4.90;99.90
25512;DHT22;13414;44.534;18.700;2022-12-18T12:01:07;5.00;99.90
25512;DHT22;13414;44.534;18.700;2022-12-18T12:03:53;5.00;99.90
25512;DHT22;13414;44.534;18.700;2022-12-18T12:06:30;5.00;99.90
25512;DHT22;13414;44.534;18.700;2022-12-18T12:09:02;5.10;99.90
25512;DHT22;13414;44.534;18.700;2022-12-18T12:11:43;5.00;99.90
25512;DHT22;13414;44.534;18.700;2022-12-18T12:14:51;5.10;99.90
25512;DHT22;13414;44.534;18.700;2022-12-18T12:17:31;5.10;99.90
25512;DHT22;13414;44.534;18.700;2022-12-18T12:20:08;5.10;99.90
25512;DHT22;13414;44.534;18.700;2022-12-18T12:22:45;5.20;99.90
25512;DHT22;13414;44.534;18.700;2022-12-18T12:25:26;5.20;99.90
25512;DHT22;13414;44.534;18.700;2022-12-18T12:28:03;5.30;99.90
25512;DHT22;13414;44.534;18.700;2022-12-18T12:30:41;5.30;99.90
25512;DHT22;13414;44.534;18.700;2022-12-18T12:33:21;5.30;99.90
25512;DHT22;13414;44.534;18.700;2022-12-18T12:35:58;5.30;99.90
25512;DHT22;13414;44.534;18.700;2022-12-18T12:38:32;5.30;99.90
25512;DHT22;13414;44.534;18.700;2022-12-18T12:41:03;5.30;99.90
25512;DHT22;13414;44.534;18.700;2022-12-18T12:43:37;5.20;99.90
25512;DHT22;13414;44.534;18.700;2022-12-18T12:46:06;5.20;99.90
25512;DHT22;13414;44.534;18.700;2022-12-18T12:48:40;5.20;99.90
25512;DHT22;13414;44.534;18.700;2022-12-18T12:51:13;5.30;99.90
25512;DHT22;13414;44.534;18.700;2022-12-18T12:53:42;5.30;99.90
25512;DHT22;13414;44.534;18.700;2022-12-18T12:56:12;5.30;99.90
25512;DHT22;13414;44.534;18.700;2022-12-18T12:58:48;5.30;99.90
25512;DHT22;13414;44.534;18.700;2022-12-18T13:01:25;5.30;99.90
25512;DHT22;13414;44.534;18.700;2022-12-18T13:04:03;5.30;99.90
25512;DHT22;13414;44.534;18.700;2022-12-18T13:06:39;5.30;99.90
25512;DHT22;13414;44.534;18.700;2022-12-18T13:09:07;5.30;99.90
25512;DHT22;13414;44.534;18.700;2022-12-18T13:11:39;5.30;99.90
25512;DHT22;13414;44.534;18.700;2022-12-18T13:14:29;5.40;99.90
25512;DHT22;13414;44.534;18.700;2022-12-18T13:17:15;5.40;99.90
25512;DHT22;13414;44.534;18.700;2022-12-18T13:19:43;5.40;99.90
25512;DHT22;13414;44.534;18.700;2022-12-18T13:22:22;5.40;99.90
25512;DHT22;13414;44.534;18.700;2022-12-18T13:24:51;5.40;99.90
25512;DHT22;13414;44.534;18.700;2022-12-18T13:27:51;5.40;99.90
25512;DHT22;13414;44.534;18.700;2022-12-18T13:30:45;5.50;99.90
25512;DHT22;13414;44.534;18.700;2022-12-18T13:33:40;5.40;99.90
25512;DHT22;13414;44.534;18.700;2022-12-18T13:36:29;5.40;99.90
25512;DHT22;13414;44.534;18.700;2022-12-18T13:39:23;5.30;99.90
25512;DHT22;13414;44.534;18.700;2022-12-18T13:41:52;5.30;99.90
25512;DHT22;13414;44.534;18.700;2022-12-18T13:44:26;5.20;99.90
25512;DHT22;13414;44.534;18.700;2022-12-18T13:46:57;5.30;99.90
25512;DHT22;13414;44.534;18.700;2022-12-18T13:49:29;5.30;99.90
25512;DHT22;13414;44.534;18.700;2022-12-18T13:51:59;5.30;99.90
25512;DHT22;13414;44.534;18.700;2022-12-18T13:54:33;5.30;99.90
25512;DHT22;13414;44.534;18.700;2022-12-18T13:57:01;5.30;99.90
25512;DHT22;13414;44.534;18.700;2022-12-18T13:59:34;5.20;99.90
25512;DHT22;13414;44.534;18.700;2022-12-18T14:02:14;5.20;99.90
25512;DHT22;13414;44.534;18.700;2022-12-18T14:04:45;5.20;99.90
25512;DHT22;13414;44.534;18.700;2022-12-18T14:07:14;5.10;99.90
25512;DHT22;13414;44.534;18.700;2022-12-18T14:09:44;5.10;99.90
25512;DHT22;13414;44.534;18.700;2022-12-18T14:12:16;5.00;99.90
25512;DHT22;13414;44.534;18.700;2022-12-18T14:15:03;5.00;99.90
25512;DHT22;13414;44.534;18.700;2022-12-18T14:17:32;5.10;99.90
25512;DHT22;13414;44.534;18.700;2022-12-18T14:20:00;5.00;99.90
25512;DHT22;13414;44.534;18.700;2022-12-18T14:22:29;4.90;99.90
25512;DHT22;13414;44.534;18.700;2022-12-18T14:25:16;4.90;99.90
25512;DHT22;13414;44.534;18.700;2022-12-18T14:27:45;4.80;99.90
25512;DHT22;13414;44.534;18.700;2022-12-18T14:30:27;4.70;99.90
25512;DHT22;13414;44.534;18.700;2022-12-18T14:33:04;4.70;99.90
25512;DHT22;13414;44.534;18.700;2022-12-18T14:35:33;4.60;99.90
25512;DHT22;13414;44.534;18.700;2022-12-18T14:38:22;4.50;99.90
25512;DHT22;13414;44.534;18.700;2022-12-18T14:40:53;4.40;99.90
25512;DHT22;13414;44.534;18.700;2022-12-18T14:43:20;4.30;99.90
25512;DHT22;13414;44.534;18.700;2022-12-18T14:45:49;4.20;99.90
25512;DHT22;13414;44.534;18.700;2022-12-18T14:48:20;4.10;99.90
25512;DHT22;13414;44.534;18.700;2022-12-18T14:50:59;4.10;99.90
25512;DHT22;13414;44.534;18.700;2022-12-18T14:53:33;4.00;99.90
25512;DHT22;13414;44.534;18.700;2022-12-18T14:56:01;3.90;99.90
25512;DHT22;13414;44.534;18.700;2022-12-18T14:58:29;3.90;99.90
25512;DHT22;13414;44.534;18.700;2022-12-18T15:00:57;3.90;99.90
25512;DHT22;13414;44.534;18.700;2022-12-18T15:03:26;3.80;99.90
25512;DHT22;13414;44.534;18.700;2022-12-18T15:05:54;3.70;99.90
25512;DHT22;13414;44.534;18.700;2022-12-18T15:08:31;3.60;99.90
25512;DHT22;13414;44.534;18.700;2022-12-18T15:11:01;3.50;99.90
25512;DHT22;13414;44.534;18.700;2022-12-18T15:13:29;3.50;99.90
25512;DHT22;13414;44.534;18.700;2022-12-18T15:15:57;3.50;99.90
25512;DHT22;13414;44.534;18.700;2022-12-18T15:18:33;3.40;99.90
25512;DHT22;13414;44.534;18.700;2022-12-18T15:21:09;3.30;99.90
25512;DHT22;13414;44.534;18.700;2022-12-18T15:23:44;3.20;99.90
25512;DHT22;13414;44.534;18.700;2022-12-18T15:26:14;3.20;99.90
25512;DHT22;13414;44.534;18.700;2022-12-18T15:28:44;3.20;99.90
25512;DHT22;13414;44.534;18.700;2022-12-18T15:31:24;3.10;99.90
25512;DHT22;13414;44.534;18.700;2022-12-18T15:34:10;3.00;99.90
25512;DHT22;13414;44.534;18.700;2022-12-18T15:36:39;2.90;99.90
25512;DHT22;13414;44.534;18.700;2022-12-18T15:39:11;2.70;99.90
25512;DHT22;13414;44.534;18.700;2022-12-18T15:41:39;2.60;99.90
25512;DHT22;13414;44.534;18.700;2022-12-18T15:44:21;2.50;99.90
25512;DHT22;13414;44.534;18.700;2022-12-18T15:46:48;2.40;99.90
25512;DHT22;13414;44.534;18.700;2022-12-18T15:49:17;2.30;99.90
25512;DHT22;13414;44.534;18.700;2022-12-18T15:51:45;2.30;99.90
25512;DHT22;13414;44.534;18.700;2022-12-18T15:54:15;2.20;99.90
25512;DHT22;13414;44.534;18.700;2022-12-18T15:57:03;2.20;99.90
25512;DHT22;13414;44.534;18.700;2022-12-18T15:59:48;2.20;99.90
25512;DHT22;13414;44.534;18.700;2022-12-18T16:02:17;2.20;99.90
25512;DHT22;13414;44.534;18.700;2022-12-18T16:04:46;2.10;99.90